createdAt,value
2019-02-11T00:00:18.564Z,17.7
2019-02-11T00:01:08.897Z,17.7
2019-02-11T00:01:58.719Z,17.7
2019-02-11T00:02:48.741Z,17.7
2019-02-11T00:03:38.799Z,17.7
2019-02-11T00:04:28.862Z,17.7
2019-02-11T00:05:18.633Z,17.7
2019-02-11T00:06:08.986Z,17.7
2019-02-11T00:06:58.773Z,17.7
2019-02-11T00:07:48.811Z,17.7
2019-02-11T00:08:39.156Z,17.7
2019-02-11T00:09:29.208Z,17.7
2019-02-11T00:10:19.565Z,17.7
2019-02-11T00:11:09.609Z,17.7
2019-02-11T00:11:58.827Z,17.6
2019-02-11T00:12:49.158Z,17.6
2019-02-11T00:13:39.520Z,17.7
2019-02-11T00:14:29.295Z,17.6
2019-02-11T00:15:19.609Z,17.6
2019-02-11T00:16:09.953Z,17.7
2019-02-11T00:17:00.059Z,17.6
2019-02-11T00:17:50.120Z,17.7
2019-02-11T00:18:40.172Z,17.7
2019-02-11T00:19:30.241Z,17.7
2019-02-11T00:20:19.975Z,17.7
2019-02-11T00:21:09.743Z,17.7
2019-02-11T00:22:00.383Z,17.6
2019-02-11T00:22:49.875Z,17.6
2019-02-11T00:23:39.909Z,17.6
2019-02-11T00:24:29.992Z,17.6
2019-02-11T00:25:19.482Z,17.6
2019-02-11T00:26:10.113Z,17.6
2019-02-11T00:26:59.892Z,17.6
2019-02-11T00:27:50.587Z,17.6
2019-02-11T00:28:40.822Z,17.6
2019-02-11T00:29:30.600Z,17.6
2019-02-11T00:30:20.935Z,17.6
2019-02-11T00:31:10.957Z,17.6
2019-02-11T00:32:01.109Z,17.6
2019-02-11T00:32:51.503Z,17.6
2019-02-11T00:33:41.187Z,17.6
2019-02-11T00:34:31.021Z,17.6
2019-02-11T00:35:21.020Z,17.6
2019-02-11T00:36:10.793Z,17.6
2019-02-11T00:37:01.167Z,17.6
2019-02-11T00:37:51.197Z,17.6
2019-02-11T00:38:41.249Z,17.6
2019-02-11T00:39:30.899Z,17.6
2019-02-11T00:40:21.364Z,17.6
2019-02-11T00:41:10.887Z,17.6
2019-02-11T00:42:00.649Z,17.6
2019-02-11T00:42:51.544Z,17.6
2019-02-11T00:43:41.609Z,17.6
2019-02-11T00:44:31.650Z,17.6
2019-02-11T00:45:21.429Z,17.6
2019-02-11T00:46:11.769Z,17.6
2019-02-11T00:47:01.864Z,17.6
2019-02-11T00:47:51.878Z,17.6
2019-02-11T00:48:41.961Z,17.6
2019-02-11T00:49:31.452Z,17.6
2019-02-11T00:50:22.072Z,17.6
2019-02-11T00:51:11.554Z,17.6
2019-02-11T00:52:01.641Z,17.6
2019-02-11T00:52:52.518Z,17.6
2019-02-11T00:53:41.193Z,17.6
2019-02-11T00:54:32.350Z,17.6
2019-02-11T00:55:22.465Z,17.6
2019-02-11T00:56:12.733Z,17.6
2019-02-11T00:57:02.538Z,17.6
2019-02-11T00:57:52.599Z,17.6
2019-02-11T00:58:42.098Z,17.6
2019-02-11T00:59:32.721Z,17.6
2019-02-11T01:00:22.568Z,17.6
2019-02-11T01:01:13.142Z,17.6
2019-02-11T01:02:02.322Z,17.6
2019-02-11T01:02:52.930Z,17.6
2019-02-11T01:03:43.287Z,17.6
2019-02-11T01:04:33.055Z,17.6
2019-02-11T01:05:23.125Z,17.6
2019-02-11T01:06:12.910Z,17.6
2019-02-11T01:07:03.294Z,17.6
2019-02-11T01:07:53.579Z,17.6
2019-02-11T01:08:43.075Z,17.6
2019-02-11T01:09:33.397Z,17.6
2019-02-11T01:10:23.252Z,17.6
2019-02-11T01:11:13.313Z,17.6
2019-02-11T01:12:03.015Z,17.6
2019-02-11T01:12:53.631Z,17.6
2019-02-11T01:13:43.202Z,17.6
2019-02-11T01:14:32.937Z,17.6
2019-02-11T01:15:22.974Z,17.6
2019-02-11T01:16:13.881Z,17.6
2019-02-11T01:17:03.661Z,17.6
2019-02-11T01:17:54.326Z,17.6
2019-02-11T01:18:44.123Z,17.6
2019-02-11T01:19:34.104Z,17.6
2019-02-11T01:20:23.891Z,17.6
2019-02-11T01:21:13.939Z,17.6
2019-02-11T01:22:04.324Z,17.6
2019-02-11T01:22:54.063Z,17.6
2019-02-11T01:23:43.857Z,17.6
2019-02-11T01:24:34.186Z,17.6
2019-02-11T01:25:23.966Z,17.6
2019-02-11T01:26:14.301Z,17.6
2019-02-11T01:27:04.900Z,17.6
2019-02-11T01:27:54.691Z,17.6
2019-02-11T01:28:44.748Z,17.6
2019-02-11T01:29:34.803Z,17.6
2019-02-11T01:30:25.137Z,17.6
2019-02-11T01:31:14.371Z,17.6
2019-02-11T01:32:04.691Z,17.6
2019-02-11T01:32:55.036Z,17.6
2019-02-11T01:33:45.145Z,17.6
2019-02-11T01:34:34.889Z,17.6
2019-02-11T01:35:25.215Z,17.6
2019-02-11T01:36:14.435Z,17.6
2019-02-11T01:37:05.055Z,17.6
2019-02-11T01:37:55.430Z,17.6
2019-02-11T01:38:45.181Z,17.6
2019-02-11T01:39:35.020Z,17.6
2019-02-11T01:40:25.290Z,17.6
2019-02-11T01:41:15.621Z,17.6
2019-02-11T01:42:05.472Z,17.6
2019-02-11T01:42:55.745Z,17.6
2019-02-11T01:43:46.063Z,17.6
2019-02-11T01:44:35.008Z,17.6
2019-02-11T01:45:25.363Z,17.6
2019-02-11T01:46:16.270Z,17.6
2019-02-11T01:47:05.252Z,17.6
2019-02-11T01:47:55.817Z,17.5
2019-02-11T01:48:46.150Z,17.5
2019-02-11T01:49:36.222Z,17.6
2019-02-11T01:50:26.267Z,17.6
2019-02-11T01:51:16.330Z,17.5
2019-02-11T01:52:05.337Z,17.5
2019-02-11T01:52:56.743Z,17.6
2019-02-11T01:53:46.542Z,17.5
2019-02-11T01:54:36.837Z,17.6
2019-02-11T01:55:26.627Z,17.6
2019-02-11T01:56:16.475Z,17.5
2019-02-11T01:57:06.732Z,17.5
2019-02-11T01:57:57.064Z,17.6
2019-02-11T01:58:46.629Z,17.5
2019-02-11T01:59:36.919Z,17.6
2019-02-11T02:00:26.689Z,17.6
2019-02-11T02:01:16.757Z,17.6
2019-02-11T02:02:07.085Z,17.5
2019-02-11T02:02:57.134Z,17.5
2019-02-11T02:03:47.211Z,17.5
2019-02-11T02:04:37.256Z,17.5
2019-02-11T02:05:26.500Z,17.5
2019-02-11T02:06:17.376Z,17.5
2019-02-11T02:07:07.444Z,17.5
2019-02-11T02:07:57.219Z,17.5
2019-02-11T02:08:47.546Z,17.5
2019-02-11T02:09:37.341Z,17.5
2019-02-11T02:10:27.388Z,17.5
2019-02-11T02:11:17.176Z,17.5
2019-02-11T02:12:07.514Z,17.5
2019-02-11T02:12:57.019Z,17.5
2019-02-11T02:13:48.638Z,17.5
2019-02-11T02:14:37.676Z,17.5
2019-02-11T02:15:27.783Z,17.5
2019-02-11T02:16:18.355Z,17.5
2019-02-11T02:17:07.594Z,17.5
2019-02-11T02:17:58.465Z,17.5
2019-02-11T02:18:48.251Z,17.5
2019-02-11T02:19:37.478Z,17.5
2019-02-11T02:20:28.638Z,17.5
2019-02-11T02:21:18.441Z,17.5
2019-02-11T02:22:07.983Z,17.5
2019-02-11T02:22:58.563Z,17.5
2019-02-11T02:23:48.616Z,17.5
2019-02-11T02:24:38.382Z,17.5
2019-02-11T02:25:28.997Z,17.5
2019-02-11T02:26:18.281Z,17.5
2019-02-11T02:27:08.297Z,17.5
2019-02-11T02:27:58.632Z,17.5
2019-02-11T02:28:48.400Z,17.5
2019-02-11T02:29:39.011Z,17.5
2019-02-11T02:30:28.613Z,17.5
2019-02-11T02:31:18.583Z,17.5
2019-02-11T02:32:08.947Z,17.5
2019-02-11T02:32:59.348Z,17.5
2019-02-11T02:33:49.605Z,17.5
2019-02-11T02:34:39.147Z,17.5
2019-02-11T02:35:28.879Z,17.5
2019-02-11T02:36:18.975Z,17.5
2019-02-11T02:37:09.870Z,17.5
2019-02-11T02:37:59.904Z,17.5
2019-02-11T02:38:49.958Z,17.4
2019-02-11T02:39:39.715Z,17.5
2019-02-11T02:40:29.859Z,17.5
2019-02-11T02:41:19.332Z,17.4
2019-02-11T02:42:09.926Z,17.5
2019-02-11T02:43:00.304Z,17.4
2019-02-11T02:43:59.973Z,17.4
2019-02-11T02:44:39.071Z,17.4
2019-02-11T02:45:29.391Z,17.4
2019-02-11T02:46:19.206Z,17.4
2019-02-11T02:47:09.504Z,17.4
2019-02-11T02:47:59.570Z,17.5
2019-02-11T02:48:50.186Z,17.5
2019-02-11T02:49:39.958Z,17.4
2019-02-11T02:50:30.308Z,17.4
2019-02-11T02:51:20.106Z,17.4
2019-02-11T02:52:09.684Z,17.4
2019-02-11T02:53:00.476Z,17.4
2019-02-11T02:53:49.974Z,17.4
2019-02-11T02:54:40.038Z,17.4
2019-02-11T02:55:30.088Z,17.4
2019-02-11T02:56:20.176Z,17.4
2019-02-11T02:57:10.493Z,17.4
2019-02-11T02:58:00.841Z,17.4
2019-02-11T02:58:50.664Z,17.4
2019-02-11T02:59:40.605Z,17.4
2019-02-11T03:00:30.976Z,17.4
2019-02-11T03:01:21.521Z,17.4
2019-02-11T03:02:11.062Z,17.4
2019-02-11T03:03:00.854Z,17.4
2019-02-11T03:03:51.230Z,17.4
2019-02-11T03:04:40.992Z,17.4
2019-02-11T03:08:13.613Z,17.4
2019-02-11T03:09:03.430Z,17.4
2019-02-11T03:09:54.058Z,17.4
2019-02-11T03:10:44.041Z,17.4
2019-02-11T03:11:34.141Z,17.4
2019-02-11T03:12:24.163Z,17.4
2019-02-11T03:13:14.447Z,17.4
2019-02-11T03:14:10.320Z,17.4
2019-02-11T03:14:54.357Z,17.4
2019-02-11T03:15:44.410Z,17.4
2019-02-11T03:16:33.646Z,17.4
2019-02-11T03:17:24.519Z,17.4
2019-02-11T03:18:14.604Z,17.4
2019-02-11T03:19:04.104Z,17.4
2019-02-11T03:19:54.141Z,17.4
2019-02-11T03:20:44.200Z,17.4
2019-02-11T03:21:34.804Z,17.4
2019-02-11T03:22:24.573Z,17.4
2019-02-11T03:23:14.406Z,17.4
2019-02-11T03:24:04.995Z,17.4
2019-02-11T03:24:54.752Z,17.4
2019-02-11T03:25:44.881Z,17.4
2019-02-11T03:26:34.874Z,17.4
2019-02-11T03:27:24.951Z,17.4
2019-02-11T03:28:15.017Z,17.4
2019-02-11T03:29:05.103Z,17.4
2019-02-11T03:29:55.236Z,17.4
2019-02-11T03:30:44.998Z,17.4
2019-02-11T03:31:35.647Z,17.4
2019-02-11T03:32:25.679Z,17.4
2019-02-11T03:33:15.657Z,17.4
2019-02-11T03:34:05.733Z,17.4
2019-02-11T03:34:55.468Z,17.4
2019-02-11T03:35:45.524Z,17.4
2019-02-11T03:36:35.640Z,17.4
2019-02-11T03:37:25.920Z,17.4
2019-02-11T03:38:15.698Z,17.4
2019-02-11T03:39:06.065Z,17.4
2019-02-11T03:39:55.845Z,17.4
2019-02-11T03:40:46.145Z,17.4
2019-02-11T03:41:35.936Z,17.4
2019-02-11T03:42:26.000Z,17.4
2019-02-11T03:43:16.338Z,17.4
2019-02-11T03:44:15.942Z,17.4
2019-02-11T03:44:55.887Z,17.4
2019-02-11T03:45:46.250Z,17.4
2019-02-11T03:46:36.587Z,17.4
2019-02-11T03:47:26.347Z,17.4
2019-02-11T03:48:16.422Z,17.4
2019-02-11T03:49:06.005Z,17.4
2019-02-11T03:49:56.034Z,17.4
2019-02-11T03:50:46.100Z,17.4
2019-02-11T03:51:35.596Z,17.4
2019-02-11T03:52:26.272Z,17.4
2019-02-11T03:53:16.522Z,17.4
2019-02-11T03:54:06.052Z,17.4
2019-02-11T03:54:56.958Z,17.4
2019-02-11T03:55:46.455Z,17.4
2019-02-11T03:56:36.527Z,17.4
2019-02-11T03:57:26.579Z,17.4
2019-02-11T03:58:16.648Z,17.4
2019-02-11T03:59:06.905Z,17.4
2019-02-11T03:59:57.039Z,17.4
2019-02-11T04:00:47.564Z,17.4
2019-02-11T04:01:37.343Z,17.4
2019-02-11T04:02:27.395Z,17.4
2019-02-11T04:03:17.461Z,17.4
2019-02-11T04:04:07.248Z,17.4
2019-02-11T04:04:57.563Z,17.4
2019-02-11T04:05:47.076Z,17.4
2019-02-11T04:06:37.706Z,17.4
2019-02-11T04:07:27.521Z,17.4
2019-02-11T04:08:17.796Z,17.4
2019-02-11T04:09:08.195Z,17.4
2019-02-11T04:09:57.986Z,17.4
2019-02-11T04:10:47.715Z,17.4
2019-02-11T04:11:38.035Z,17.4
2019-02-11T04:12:28.126Z,17.4
2019-02-11T04:13:17.896Z,17.4
2019-02-11T04:14:08.233Z,17.4
2019-02-11T04:14:58.603Z,17.4
2019-02-11T04:15:48.357Z,17.4
2019-02-11T04:16:38.378Z,17.3
2019-02-11T04:17:27.640Z,17.3
2019-02-11T04:18:18.803Z,17.3
2019-02-11T04:19:08.934Z,17.3
2019-02-11T04:19:58.659Z,17.4
2019-02-11T04:20:51.480Z,17.3
2019-02-11T04:21:38.514Z,17.3
2019-02-11T04:22:28.791Z,17.3
2019-02-11T04:23:19.153Z,17.3
2019-02-11T04:24:09.263Z,17.3
2019-02-11T04:24:58.973Z,17.3
2019-02-11T04:25:49.040Z,17.3
2019-02-11T04:26:38.817Z,17.3
2019-02-11T04:27:29.147Z,17.3
2019-02-11T04:28:19.495Z,17.3
2019-02-11T04:29:09.547Z,17.3
2019-02-11T04:29:59.322Z,17.3
2019-02-11T04:30:49.788Z,17.3
2019-02-11T04:31:39.512Z,17.3
2019-02-11T04:32:29.507Z,17.3
2019-02-11T04:33:19.572Z,17.3
2019-02-11T04:34:09.631Z,17.3
2019-02-11T04:34:59.402Z,17.3
2019-02-11T04:35:50.007Z,17.3
2019-02-11T04:36:40.143Z,17.3
2019-02-11T04:37:29.844Z,17.3
2019-02-11T04:38:20.189Z,17.3
2019-02-11T04:39:10.239Z,17.3
2019-02-11T04:39:59.502Z,17.3
2019-02-11T04:40:50.092Z,17.3
2019-02-11T04:41:39.846Z,17.3
2019-02-11T04:42:29.654Z,17.3
2019-02-11T04:43:20.634Z,17.3
2019-02-11T04:44:10.599Z,17.3
2019-02-11T04:45:00.384Z,17.3
2019-02-11T04:45:50.416Z,17.3
2019-02-11T04:46:40.485Z,17.3
2019-02-11T04:47:30.046Z,17.3
2019-02-11T04:48:20.613Z,17.3
2019-02-11T04:49:10.394Z,17.3
2019-02-11T04:50:00.896Z,17.3
2019-02-11T04:50:50.801Z,17.3
2019-02-11T04:51:40.848Z,17.3
2019-02-11T04:52:31.217Z,17.3
2019-02-11T04:53:20.684Z,17.3
2019-02-11T04:54:11.388Z,17.3
2019-02-11T04:55:01.235Z,17.3
2019-02-11T04:55:51.449Z,17.3
2019-02-11T04:56:41.201Z,17.3
2019-02-11T04:57:31.563Z,17.3
2019-02-11T04:58:21.052Z,17.3
2019-02-11T04:59:11.405Z,17.3
2019-02-11T05:00:01.979Z,17.3
2019-02-11T05:00:51.494Z,17.3
2019-02-11T05:01:41.565Z,17.3
2019-02-11T05:02:31.367Z,17.3
2019-02-11T05:03:21.680Z,17.3
2019-02-11T05:04:12.022Z,17.3
2019-02-11T05:05:02.260Z,17.3
2019-02-11T05:05:52.115Z,17.3
2019-02-11T05:06:42.315Z,17.3
2019-02-11T05:07:32.052Z,17.3
2019-02-11T05:08:22.147Z,17.3
2019-02-11T05:09:12.408Z,17.3
2019-02-11T05:10:02.461Z,17.3
2019-02-11T05:10:52.467Z,17.3
2019-02-11T05:11:42.272Z,17.3
2019-02-11T05:12:32.358Z,17.3
2019-02-11T05:13:22.670Z,17.3
2019-02-11T05:14:12.732Z,17.3
2019-02-11T05:15:02.542Z,17.3
2019-02-11T05:15:52.617Z,17.3
2019-02-11T05:16:42.343Z,17.3
2019-02-11T05:17:32.672Z,17.3
2019-02-11T05:18:23.007Z,17.3
2019-02-11T05:19:13.055Z,17.3
2019-02-11T05:20:02.320Z,17.3
2019-02-11T05:20:53.244Z,17.3
2019-02-11T05:21:42.414Z,17.3
2019-02-11T05:22:32.735Z,17.3
2019-02-11T05:23:23.088Z,17.3
2019-02-11T05:24:13.430Z,17.3
2019-02-11T05:25:03.495Z,17.3
2019-02-11T05:25:53.080Z,17.3
2019-02-11T05:26:43.601Z,17.3
2019-02-11T05:27:32.866Z,17.3
2019-02-11T05:28:23.468Z,17.3
2019-02-11T05:29:13.231Z,17.3
2019-02-11T05:30:03.670Z,17.3
2019-02-11T05:30:53.603Z,17.3
2019-02-11T05:31:43.974Z,17.3
2019-02-11T05:32:33.515Z,17.3
2019-02-11T05:33:24.533Z,17.3
2019-02-11T05:34:13.898Z,17.3
2019-02-11T05:35:04.597Z,17.3
2019-02-11T05:35:54.270Z,17.3
2019-02-11T05:36:43.999Z,17.3
2019-02-11T05:37:34.355Z,17.2
2019-02-11T05:38:24.151Z,17.3
2019-02-11T05:39:14.213Z,17.3
2019-02-11T05:40:04.472Z,17.3
2019-02-11T05:40:54.293Z,17.3
2019-02-11T05:41:44.373Z,17.3
2019-02-11T05:42:34.409Z,17.2
2019-02-11T05:43:24.813Z,17.3
2019-02-11T05:44:13.986Z,17.2
2019-02-11T05:45:04.682Z,17.3
2019-02-11T05:45:54.902Z,17.3
2019-02-11T05:46:44.968Z,17.2
2019-02-11T05:47:34.802Z,17.3
2019-02-11T05:48:24.283Z,17.3
2019-02-11T05:49:14.881Z,17.3
2019-02-11T05:50:04.709Z,17.2
2019-02-11T05:50:54.737Z,17.3
2019-02-11T05:51:45.410Z,17.3
2019-02-11T05:52:35.415Z,17.2
2019-02-11T05:53:25.192Z,17.2
2019-02-11T05:54:15.524Z,17.2
2019-02-11T05:55:05.319Z,17.2
2019-02-11T05:55:55.358Z,17.3
2019-02-11T05:56:45.673Z,17.2
2019-02-11T05:57:35.222Z,17.2
2019-02-11T05:58:25.794Z,17.2
2019-02-11T05:59:15.556Z,17.2
2019-02-11T06:00:05.577Z,17.2
2019-02-11T06:00:55.415Z,17.2
2019-02-11T06:01:45.784Z,17.2
2019-02-11T06:02:35.804Z,17.2
2019-02-11T06:03:25.972Z,17.2
2019-02-11T06:04:15.684Z,17.2
2019-02-11T06:06:12.898Z,17.2
2019-02-11T06:07:03.479Z,17.2
2019-02-11T06:07:53.828Z,17.2
2019-02-11T06:08:43.348Z,17.2
2019-02-11T06:09:33.668Z,17.2
2019-02-11T06:10:23.784Z,17.2
2019-02-11T06:11:13.242Z,17.2
2019-02-11T06:12:04.172Z,17.2
2019-02-11T06:12:54.166Z,17.2
2019-02-11T06:13:43.663Z,17.2
2019-02-11T06:14:33.724Z,17.2
2019-02-11T06:15:24.049Z,17.2
2019-02-11T06:16:14.151Z,17.2
2019-02-11T06:17:04.188Z,17.2
2019-02-11T06:17:53.757Z,17.2
2019-02-11T06:18:43.848Z,17.2
2019-02-11T06:19:33.795Z,17.2
2019-02-11T06:20:24.445Z,17.2
2019-02-11T06:21:14.723Z,17.2
2019-02-11T06:22:04.788Z,17.2
2019-02-11T06:22:54.593Z,17.2
2019-02-11T06:23:44.642Z,17.2
2019-02-11T06:24:34.680Z,17.2
2019-02-11T06:25:24.903Z,17.2
2019-02-11T06:26:15.082Z,17.2
2019-02-11T06:27:04.490Z,17.2
2019-02-11T06:27:54.642Z,17.1
2019-02-11T06:28:45.297Z,17.2
2019-02-11T06:29:35.055Z,17.2
2019-02-11T06:30:24.847Z,17.2
2019-02-11T06:31:15.169Z,17.2
2019-02-11T06:32:05.594Z,17.2
2019-02-11T06:32:55.007Z,17.1
2019-02-11T06:33:45.070Z,17.2
2019-02-11T06:34:36.987Z,17.1
2019-02-11T06:35:25.195Z,17.2
2019-02-11T06:36:16.252Z,17.1
2019-02-11T06:37:05.331Z,17.2
2019-02-11T06:37:55.642Z,17.2
2019-02-11T06:38:45.724Z,17.2
2019-02-11T06:39:36.045Z,17.2
2019-02-11T06:40:26.149Z,17.1
2019-02-11T06:41:15.313Z,17.1
2019-02-11T06:42:05.649Z,17.1
2019-02-11T06:42:55.983Z,17.2
2019-02-11T06:43:46.024Z,17.1
2019-02-11T06:44:36.414Z,17.1
2019-02-11T06:45:26.411Z,17.1
2019-02-11T06:46:16.211Z,17.1
2019-02-11T06:47:06.546Z,17.1
2019-02-11T06:47:56.619Z,17.1
2019-02-11T06:48:46.116Z,17.1
2019-02-11T06:49:35.899Z,17.1
2019-02-11T06:50:26.514Z,17.1
2019-02-11T06:51:16.026Z,17.1
2019-02-11T06:52:06.058Z,17.1
2019-02-11T06:52:56.456Z,17.1
2019-02-11T06:53:46.173Z,17.1
2019-02-11T06:54:36.288Z,17.1
2019-02-11T06:55:26.015Z,17.1
2019-02-11T06:56:16.365Z,17.1
2019-02-11T06:57:08.401Z,17.1
2019-02-11T06:57:57.018Z,17.1
2019-02-11T06:58:47.083Z,17.1
2019-02-11T06:59:37.137Z,17.1
2019-02-11T07:00:26.713Z,17.1
2019-02-11T07:01:16.423Z,17.1
2019-02-11T07:02:07.308Z,17.1
2019-02-11T07:02:56.843Z,17.1
2019-02-11T07:03:46.885Z,17.1
2019-02-11T07:06:13.655Z,17.1
2019-02-11T07:07:03.699Z,17.1
2019-02-11T07:07:53.202Z,17.1
2019-02-11T07:08:43.542Z,17.1
2019-02-11T07:09:33.888Z,17.1
2019-02-11T07:10:23.667Z,17.1
2019-02-11T07:11:12.932Z,17.1
2019-02-11T07:12:02.947Z,17.1
2019-02-11T07:12:53.842Z,17.1
2019-02-11T07:13:43.899Z,17.1
2019-02-11T07:14:34.227Z,17.1
2019-02-11T07:15:26.171Z,17.1
2019-02-11T07:16:14.404Z,17.1
2019-02-11T07:17:03.582Z,17.1
2019-02-11T07:17:53.936Z,17.1
2019-02-11T07:18:44.254Z,17.1
2019-02-11T07:19:34.569Z,17.1
2019-02-11T07:20:23.871Z,17.1
2019-02-11T07:21:14.119Z,17.1
2019-02-11T07:22:04.769Z,17.1
2019-02-11T07:22:54.256Z,17.1
2019-02-11T07:23:44.594Z,17.1
2019-02-11T07:24:34.918Z,17.1
2019-02-11T07:25:24.724Z,17.1
2019-02-11T07:26:15.045Z,17.1
2019-02-11T07:27:04.811Z,17.1
2019-02-11T07:27:54.874Z,17.1
2019-02-11T07:28:44.987Z,17.1
2019-02-11T07:29:34.431Z,17.1
2019-02-11T07:30:24.576Z,17.1
2019-02-11T07:31:15.077Z,17.1
2019-02-11T07:32:05.441Z,17.1
2019-02-11T07:32:55.496Z,17.1
2019-02-11T07:33:44.739Z,17.1
2019-02-11T07:34:34.794Z,17.1
2019-02-11T07:35:25.696Z,17.1
2019-02-11T07:36:15.767Z,17.1
2019-02-11T07:37:05.539Z,17.1
2019-02-11T07:37:56.008Z,17.1
2019-02-11T07:38:45.132Z,17.1
2019-02-11T07:39:35.988Z,17.1
2019-02-11T07:40:25.228Z,17.1
2019-02-11T07:41:15.785Z,17.1
2019-02-11T07:42:08.103Z,17.1
2019-02-11T07:42:55.359Z,17.1
2019-02-11T07:43:45.735Z,17.1
2019-02-11T07:44:35.185Z,17.1
2019-02-11T07:45:34.057Z,17.1
2019-02-11T07:46:16.135Z,17.1
2019-02-11T07:47:06.180Z,17.1
2019-02-11T07:47:56.000Z,17.1
2019-02-11T07:48:46.061Z,17.1
2019-02-11T07:49:36.107Z,17.1
2019-02-11T07:50:26.442Z,17.1
2019-02-11T07:51:16.784Z,17.1
2019-02-11T07:52:06.827Z,17.1
2019-02-11T07:52:56.602Z,17.1
2019-02-11T07:53:46.384Z,17.1
2019-02-11T07:54:36.774Z,17.1
2019-02-11T07:55:26.220Z,17.1
2019-02-11T07:56:17.168Z,17.1
2019-02-11T07:57:06.632Z,17.1
2019-02-11T07:57:56.667Z,17.1
2019-02-11T07:58:46.734Z,17.1
2019-02-11T07:59:37.079Z,17.1
2019-02-11T08:00:27.412Z,17.1
2019-02-11T08:01:16.938Z,17.1
2019-02-11T08:02:06.974Z,17.1
2019-02-11T08:02:57.324Z,17.1
2019-02-11T08:03:47.379Z,17.1
2019-02-11T08:04:37.751Z,17.1
2019-02-11T08:05:27.204Z,17.1
2019-02-11T08:06:17.571Z,17.1
2019-02-11T08:07:07.089Z,17.1
2019-02-11T08:07:57.931Z,17.1
2019-02-11T08:08:48.007Z,17.1
2019-02-11T08:09:37.481Z,17.1
2019-02-11T08:10:27.858Z,17.1
2019-02-11T08:11:18.158Z,17.1
2019-02-11T08:12:57.786Z,17.1
2019-02-11T08:14:38.385Z,17.1
2019-02-11T08:16:18.519Z,17.1
2019-02-11T08:18:48.113Z,17.1
2019-02-11T08:19:38.513Z,17.1
2019-02-11T08:20:28.250Z,17.1
2019-02-11T08:21:18.571Z,17.1
2019-02-11T08:57:11.043Z,16.9
2019-02-11T09:00:31.015Z,16.9
2019-02-11T09:01:21.384Z,16.9
2019-02-11T09:03:01.473Z,16.9
2019-02-11T09:06:21.597Z,16.9
2019-02-11T09:08:03.809Z,16.9
2019-02-11T09:09:41.965Z,16.9
2019-02-11T09:10:31.508Z,16.9
2019-02-11T09:11:22.050Z,16.9
2019-02-11T09:12:12.114Z,16.9
2019-02-11T09:13:52.207Z,16.9
2019-02-11T09:14:42.280Z,16.9
2019-02-11T09:15:32.064Z,16.9
2019-02-11T09:16:22.663Z,16.9
2019-02-11T09:17:14.555Z,16.9
2019-02-11T09:18:02.794Z,16.9
2019-02-11T09:18:52.263Z,16.9
2019-02-11T09:20:32.399Z,16.9
2019-02-11T09:21:22.457Z,16.9
2019-02-11T09:22:12.779Z,16.9
2019-02-11T09:23:02.294Z,16.9
2019-02-11T09:23:52.916Z,16.9
2019-02-11T09:24:42.676Z,16.9
2019-02-11T09:25:33.291Z,16.9
2019-02-11T09:26:22.802Z,16.9
2019-02-11T09:27:13.399Z,16.9
2019-02-11T09:28:03.464Z,16.9
2019-02-11T09:28:52.736Z,16.9
2019-02-11T09:29:43.290Z,16.9
2019-02-11T09:30:32.611Z,16.9
2019-02-11T09:31:23.144Z,16.9
2019-02-11T09:32:12.923Z,16.9
2019-02-11T09:33:03.347Z,16.9
2019-02-11T09:33:53.386Z,16.9
2019-02-11T09:34:42.571Z,16.9
2019-02-11T09:35:33.459Z,16.9
2019-02-11T09:36:23.506Z,16.9
2019-02-11T09:37:13.854Z,16.9
2019-02-11T09:38:03.618Z,16.9
2019-02-11T09:38:53.401Z,16.9
2019-02-11T09:39:44.058Z,16.9
2019-02-11T09:40:33.815Z,16.9
2019-02-11T09:41:24.124Z,16.9
2019-02-11T09:42:13.958Z,16.9
2019-02-11T09:43:03.961Z,16.9
2019-02-11T09:43:54.362Z,16.9
2019-02-11T09:44:44.625Z,16.9
2019-02-11T09:45:33.578Z,16.9
2019-02-11T09:46:24.518Z,16.9
2019-02-11T09:47:14.819Z,16.9
2019-02-11T09:48:04.322Z,16.9
2019-02-11T09:48:53.896Z,16.9
2019-02-11T09:49:44.985Z,16.9
2019-02-11T09:50:34.487Z,16.9
2019-02-11T09:51:25.096Z,16.9
2019-02-11T09:52:14.600Z,16.9
2019-02-11T09:53:04.667Z,16.9
2019-02-11T09:53:55.002Z,16.9
2019-02-11T09:54:44.595Z,16.9
2019-02-11T09:55:35.099Z,16.9
2019-02-11T09:56:25.157Z,16.9
2019-02-11T09:57:14.662Z,16.9
2019-02-11T09:58:05.295Z,16.9
2019-02-11T09:58:55.194Z,16.9
2019-02-11T09:59:45.702Z,16.9
2019-02-11T10:00:34.681Z,16.9
2019-02-11T10:01:25.849Z,16.9
2019-02-11T10:02:15.852Z,16.9
2019-02-11T10:03:05.379Z,16.9
2019-02-11T10:03:55.430Z,16.9
2019-02-11T10:04:45.469Z,16.9
2019-02-11T10:07:12.927Z,16.9
2019-02-11T10:08:03.317Z,16.9
2019-02-11T10:08:53.623Z,16.9
2019-02-11T10:09:43.659Z,16.9
2019-02-11T10:10:33.761Z,16.9
2019-02-11T10:11:22.931Z,16.9
2019-02-11T10:12:21.728Z,16.9
2019-02-11T10:13:03.906Z,16.9
2019-02-11T10:13:53.665Z,16.9
2019-02-11T10:14:43.791Z,16.9
2019-02-11T10:15:33.541Z,16.9
2019-02-11T10:16:25.421Z,16.9
2019-02-11T10:17:14.174Z,16.9
2019-02-11T10:18:04.233Z,16.9
2019-02-11T10:18:54.013Z,16.9
2019-02-11T10:19:44.360Z,16.9
2019-02-11T10:20:33.603Z,16.9
2019-02-11T10:21:24.188Z,16.9
2019-02-11T10:22:14.246Z,16.9
2019-02-11T10:23:04.326Z,16.9
2019-02-11T10:23:54.646Z,16.9
2019-02-11T10:24:44.702Z,16.9
2019-02-11T10:25:33.929Z,16.9
2019-02-11T10:26:24.545Z,16.9
2019-02-11T10:27:14.320Z,16.9
2019-02-11T10:28:04.665Z,16.9
2019-02-11T10:28:54.734Z,16.9
2019-02-11T10:29:44.502Z,16.9
2019-02-11T10:30:34.850Z,16.9
2019-02-11T10:31:24.885Z,16.9
2019-02-11T10:32:15.257Z,16.9
2019-02-11T10:33:04.480Z,16.9
2019-02-11T10:33:55.332Z,16.9
2019-02-11T10:34:45.177Z,16.9
2019-02-11T10:35:43.557Z,16.9
2019-02-11T10:36:25.229Z,16.9
2019-02-11T10:37:15.287Z,16.9
2019-02-11T10:38:04.804Z,16.9
2019-02-11T10:38:54.866Z,16.9
2019-02-11T10:39:45.766Z,16.9
2019-02-11T10:40:35.302Z,16.9
2019-02-11T10:41:25.857Z,16.9
2019-02-11T10:42:15.686Z,16.9
2019-02-11T10:43:05.776Z,16.9
2019-02-11T10:43:55.772Z,16.9
2019-02-11T10:44:45.836Z,16.9
2019-02-11T10:45:40.394Z,16.9
2019-02-11T10:46:25.374Z,16.9
2019-02-11T10:47:15.181Z,16.9
2019-02-11T10:48:06.342Z,16.9
2019-02-11T10:48:55.558Z,16.9
2019-02-11T10:49:46.161Z,16.9
2019-02-11T10:50:36.333Z,16.9
2019-02-11T10:51:26.021Z,16.8
2019-02-11T10:52:16.598Z,16.9
2019-02-11T10:53:06.138Z,16.9
2019-02-11T10:53:56.201Z,16.8
2019-02-11T10:54:46.513Z,16.9
2019-02-11T10:55:36.314Z,16.8
2019-02-11T10:56:26.640Z,16.8
2019-02-11T10:57:16.416Z,16.8
2019-02-11T10:58:06.861Z,16.8
2019-02-11T10:58:56.848Z,16.8
2019-02-11T10:59:46.905Z,16.9
2019-02-11T11:00:37.195Z,16.8
2019-02-11T11:01:28.008Z,16.8
2019-02-11T11:02:16.771Z,16.8
2019-02-11T11:03:07.443Z,16.9
2019-02-11T11:03:57.150Z,16.8
2019-02-11T11:04:47.482Z,16.8
2019-02-11T11:05:36.990Z,16.8
2019-02-11T11:06:27.690Z,16.8
2019-02-11T11:07:17.677Z,16.8
2019-02-11T11:08:07.738Z,16.8
2019-02-11T11:08:57.513Z,16.8
2019-02-11T11:09:47.560Z,16.8
2019-02-11T11:10:37.334Z,16.8
2019-02-11T11:11:27.948Z,16.8
2019-02-11T11:12:17.189Z,16.8
2019-02-11T11:13:07.789Z,16.8
2019-02-11T11:13:57.635Z,16.8
2019-02-11T11:14:47.121Z,16.8
2019-02-11T11:15:38.268Z,16.8
2019-02-11T11:16:33.977Z,16.8
2019-02-11T11:17:17.817Z,16.8
2019-02-11T11:18:08.149Z,16.8
2019-02-11T11:18:57.661Z,16.8
2019-02-11T11:19:47.982Z,16.8
2019-02-11T11:20:37.491Z,16.8
2019-02-11T11:21:27.902Z,16.8
2019-02-11T11:22:18.704Z,16.8
2019-02-11T11:23:08.234Z,16.8
2019-02-11T11:23:58.352Z,16.8
2019-02-11T11:24:48.331Z,16.8
2019-02-11T11:25:38.668Z,16.8
2019-02-11T11:26:28.996Z,16.8
2019-02-11T11:27:20.799Z,16.8
2019-02-11T11:28:08.575Z,16.8
2019-02-11T11:28:59.173Z,16.8
2019-02-11T11:29:48.946Z,16.8
2019-02-11T11:30:38.474Z,16.8
2019-02-11T11:31:29.060Z,16.8
2019-02-11T11:32:19.191Z,16.8
2019-02-11T11:33:09.713Z,16.8
2019-02-11T11:33:58.423Z,16.8
2019-02-11T11:34:48.968Z,16.8
2019-02-11T11:35:39.103Z,16.8
2019-02-11T11:36:29.188Z,16.8
2019-02-11T11:37:19.475Z,16.8
2019-02-11T11:38:09.535Z,16.8
2019-02-11T11:38:59.886Z,16.8
2019-02-11T11:39:49.665Z,16.8
2019-02-11T11:40:39.721Z,16.8
2019-02-11T11:41:29.800Z,16.8
2019-02-11T11:42:19.825Z,16.8
2019-02-11T11:43:09.626Z,16.8
2019-02-11T11:43:59.100Z,16.8
2019-02-11T11:44:49.748Z,16.8
2019-02-11T11:45:40.060Z,16.8
2019-02-11T11:46:47.565Z,16.8
2019-02-11T11:47:19.674Z,16.8
2019-02-11T11:48:09.998Z,16.8
2019-02-11T11:49:00.010Z,16.8
2019-02-11T11:49:50.623Z,16.8
2019-02-11T11:50:40.404Z,16.8
2019-02-11T11:51:30.477Z,16.8
2019-02-11T11:52:20.335Z,16.8
2019-02-11T11:53:10.862Z,16.8
2019-02-11T11:54:00.622Z,16.8
2019-02-11T11:54:50.979Z,16.8
2019-02-11T11:55:40.947Z,16.8
2019-02-11T11:56:30.978Z,16.8
2019-02-11T11:57:21.353Z,16.8
2019-02-11T11:58:11.113Z,16.8
2019-02-11T11:59:01.146Z,16.8
2019-02-11T11:59:51.514Z,16.8
2019-02-11T12:00:41.669Z,16.8
2019-02-11T12:01:31.624Z,16.8